Time;durP1;ratioP1;P1;durP2;ratioP2;P2;SDS_P1;SDS_P2;PMS_P1;PMS_P2;Temp;Humidity;BMP_temperature;BMP_pressure;BME280_temperature;BME280_humidity;BME280_pressure;Samples;Min_cycle;Max_cycle;Signal;HPM_P1;HPM_P2
2023/08/26 00:02:19;;;;;;;3.95;3.55;;;;;;;;;;5057163;28;20021;-59
2023/08/26 00:04:46;;;;;;;6.65;3.63;;;;;;;;;;5057113;28;20368;-59
2023/08/26 00:07:12;;;;;;;6.03;3.63;;;;;;;;;;5057048;28;20028;-59
2023/08/26 00:09:38;;;;;;;4.30;3.80;;;;;;;;;;5057349;28;20241;-59
2023/08/26 00:12:04;;;;;;;5.05;3.83;;;;;;;;;;5057015;28;20032;-59
2023/08/26 00:14:30;;;;;;;5.38;3.90;;;;;;;;;;5056920;28;20029;-59
2023/08/26 00:16:56;;;;;;;4.35;3.85;;;;;;;;;;5056951;28;20021;-59
2023/08/26 00:19:22;;;;;;;5.68;3.78;;;;;;;;;;5057215;28;20403;-59
2023/08/26 00:21:48;;;;;;;5.90;4.05;;;;;;;;;;5057580;28;20029;-59
2023/08/26 00:24:14;;;;;;;5.78;3.85;;;;;;;;;;5057022;28;20021;-59
2023/08/26 00:26:40;;;;;;;5.80;4.85;;;;;;;;;;5056766;28;20477;-59
2023/08/26 00:29:06;;;;;;;5.25;4.32;;;;;;;;;;5057449;28;20027;-59
2023/08/26 00:31:32;;;;;;;6.07;3.47;;;;;;;;;;5056943;28;20025;-59
2023/08/26 00:34:02;;;;;;;4.15;3.75;;;;;;;;;;5056591;28;20025;-59
2023/08/26 00:36:28;;;;;;;8.55;4.35;;;;;;;;;;5056590;28;20136;-59
2023/08/26 00:38:54;;;;;;;4.95;3.95;;;;;;;;;;5056786;28;20116;-59
2023/08/26 00:41:20;;;;;;;5.43;4.90;;;;;;;;;;5056337;28;20071;-59
2023/08/26 00:43:46;;;;;;;5.28;3.95;;;;;;;;;;5056396;28;20077;-59
2023/08/26 00:46:12;;;;;;;5.25;4.57;;;;;;;;;;5056349;28;20466;-59
2023/08/26 00:48:38;;;;;;;7.80;4.32;;;;;;;;;;5056680;28;20112;-59
2023/08/26 00:51:05;;;;;;;6.80;4.47;;;;;;;;;;5056779;28;20025;-59
2023/08/26 00:53:31;;;;;;;4.93;4.07;;;;;;;;;;5056192;28;20370;-59
2023/08/26 00:55:57;;;;;;;5.00;3.40;;;;;;;;;;5056227;28;20025;-59
2023/08/26 00:58:23;;;;;;;5.57;4.53;;;;;;;;;;5056864;28;20032;-59
2023/08/26 01:00:49;;;;;;;6.80;4.20;;;;;;;;;;5056224;28;20029;-59
2023/08/26 01:03:15;;;;;;;4.70;3.80;;;;;;;;;;5055778;28;20459;-59
2023/08/26 01:05:41;;;;;;;6.50;3.75;;;;;;;;;;5056208;28;20029;-59
2023/08/26 01:08:08;;;;;;;4.40;3.85;;;;;;;;;;5056126;28;20096;-59
2023/08/26 01:10:38;;;;;;;4.43;3.63;;;;;;;;;;5056128;28;20079;-59
2023/08/26 01:13:06;;;;;;;5.18;3.80;;;;;;;;;;5056598;28;20355;-59
2023/08/26 01:15:33;;;;;;;5.40;3.58;;;;;;;;;;5055765;28;20028;-59
2023/08/26 01:18:05;;;;;;;3.45;3.00;;;;;;;;;;5056016;28;20032;-59
2023/08/26 01:20:31;;;;;;;9.35;2.55;;;;;;;;;;5056180;28;20033;-59
2023/08/26 01:22:59;;;;;;;3.25;2.30;;;;;;;;;;5055974;28;20521;-59
2023/08/26 01:25:25;;;;;;;3.95;2.63;;;;;;;;;;5055918;28;20029;-59
2023/08/26 01:27:52;;;;;;;4.07;3.00;;;;;;;;;;5055534;28;20112;-59
2023/08/26 01:30:18;;;;;;;3.92;2.22;;;;;;;;;;5056084;28;20029;-59
2023/08/26 01:33:10;;;;;;;3.30;2.33;;;;;;;;;;5055488;28;20025;-59
2023/08/26 01:35:38;;;;;;;3.70;2.72;;;;;;;;;;5054201;28;20044;-59
2023/08/26 01:38:04;;;;;;;3.45;2.92;;;;;;;;;;5055683;28;20118;-59
2023/08/26 01:40:30;;;;;;;4.45;2.88;;;;;;;;;;5055552;28;20119;-59
2023/08/26 01:42:56;;;;;;;3.38;2.58;;;;;;;;;;5055576;28;20065;-59
2023/08/26 01:45:22;;;;;;;3.38;2.30;;;;;;;;;;5055563;28;20028;-59
2023/08/26 01:47:48;;;;;;;3.53;2.65;;;;;;;;;;5055499;28;20020;-59
2023/08/26 01:50:14;;;;;;;3.92;2.70;;;;;;;;;;5055769;28;20553;-59
2023/08/26 01:52:41;;;;;;;4.85;2.40;;;;;;;;;;5055106;28;20025;-59
2023/08/26 01:55:07;;;;;;;3.83;2.63;;;;;;;;;;5055559;28;20031;-59
2023/08/26 01:57:33;;;;;;;4.97;2.88;;;;;;;;;;5054755;28;20215;-59
2023/08/26 01:59:59;;;;;;;3.15;2.45;;;;;;;;;;5055037;28;20554;-59
2023/08/26 02:02:25;;;;;;;3.30;2.47;;;;;;;;;;5054552;28;20021;-59
2023/08/26 02:04:51;;;;;;;3.28;2.50;;;;;;;;;;5055160;28;20040;-59
2023/08/26 02:07:17;;;;;;;2.67;2.17;;;;;;;;;;5054862;28;20028;-59
2023/08/26 02:09:43;;;;;;;3.05;2.33;;;;;;;;;;5055338;28;20021;-59
2023/08/26 02:12:09;;;;;;;3.55;2.10;;;;;;;;;;5054784;28;20527;-59
2023/08/26 02:14:35;;;;;;;3.70;2.53;;;;;;;;;;5054353;28;20021;-59
2023/08/26 02:17:01;;;;;;;3.67;2.10;;;;;;;;;;5054945;28;20024;-59
2023/08/26 02:19:27;;;;;;;3.78;2.30;;;;;;;;;;5055274;28;20367;-59
2023/08/26 02:21:53;;;;;;;3.53;2.70;;;;;;;;;;5055044;28;20525;-59
2023/08/26 02:24:19;;;;;;;2.85;2.13;;;;;;;;;;5054484;28;20114;-59
2023/08/26 02:26:45;;;;;;;4.15;2.85;;;;;;;;;;5054238;28;20039;-59
2023/08/26 02:29:11;;;;;;;2.97;2.28;;;;;;;;;;5054972;28;20118;-59
2023/08/26 02:31:36;;;;;;;3.10;2.10;;;;;;;;;;5054866;28;20017;-59
2023/08/26 02:34:02;;;;;;;3.28;2.13;;;;;;;;;;5055097;28;20075;-59
2023/08/26 02:36:29;;;;;;;2.92;2.15;;;;;;;;;;5054217;28;20055;-59
2023/08/26 02:38:55;;;;;;;3.13;1.90;;;;;;;;;;5054028;28;20021;-59
2023/08/26 02:41:20;;;;;;;4.70;2.25;;;;;;;;;;5053730;28;20032;-59
2023/08/26 02:43:46;;;;;;;6.45;2.15;;;;;;;;;;5054452;28;20078;-59
2023/08/26 02:46:12;;;;;;;2.70;2.00;;;;;;;;;;5054179;28;20021;-59
2023/08/26 02:48:38;;;;;;;3.03;1.95;;;;;;;;;;5054343;28;20104;-59
2023/08/26 02:51:04;;;;;;;6.32;1.95;;;;;;;;;;5054915;28;20079;-59
2023/08/26 02:53:30;;;;;;;2.33;1.63;;;;;;;;;;5054045;28;20060;-59
2023/08/26 02:55:57;;;;;;;2.70;2.10;;;;;;;;;;5054481;28;20029;-59
2023/08/26 02:58:23;;;;;;;3.63;1.85;;;;;;;;;;5053905;28;20017;-59
2023/08/26 03:00:49;;;;;;;2.67;1.83;;;;;;;;;;5054435;28;20382;-59
2023/08/26 03:03:15;;;;;;;3.30;1.88;;;;;;;;;;5053868;28;20017;-59
2023/08/26 03:05:41;;;;;;;3.42;2.35;;;;;;;;;;5054138;28;20032;-59
2023/08/26 03:08:07;;;;;;;2.70;2.05;;;;;;;;;;5054128;28;20025;-59
2023/08/26 03:10:33;;;;;;;3.05;1.85;;;;;;;;;;5054345;28;20025;-59
2023/08/26 03:12:59;;;;;;;4.03;2.58;;;;;;;;;;5053721;28;20028;-59
2023/08/26 03:15:29;;;;;;;3.47;2.50;;;;;;;;;;5053408;28;20415;-59
2023/08/26 03:17:56;;;;;;;3.27;2.33;;;;;;;;;;5053446;28;20074;-59
2023/08/26 03:20:22;;;;;;;3.35;1.83;;;;;;;;;;5054362;28;20090;-59
2023/08/26 03:22:48;;;;;;;3.33;2.30;;;;;;;;;;5053631;28;20429;-59
2023/08/26 03:25:14;;;;;;;3.65;2.38;;;;;;;;;;5053588;28;20028;-59
2023/08/26 03:27:40;;;;;;;4.47;2.70;;;;;;;;;;5053219;28;20021;-59
2023/08/26 03:30:06;;;;;;;3.10;2.28;;;;;;;;;;5053545;28;20070;-59
2023/08/26 03:32:32;;;;;;;3.35;2.03;;;;;;;;;;5054089;28;20112;-59
2023/08/26 03:34:58;;;;;;;2.30;1.55;;;;;;;;;;5053408;28;20111;-59
2023/08/26 03:37:24;;;;;;;4.03;2.70;;;;;;;;;;5053480;28;20048;-59
2023/08/26 03:39:50;;;;;;;3.75;2.50;;;;;;;;;;5053306;28;20025;-59
2023/08/26 03:42:16;;;;;;;2.70;2.17;;;;;;;;;;5053363;28;20029;-59
2023/08/26 03:44:42;;;;;;;2.90;2.20;;;;;;;;;;5053425;28;20025;-59
2023/08/26 03:47:08;;;;;;;3.08;2.30;;;;;;;;;;5053388;28;20020;-59
2023/08/26 03:49:34;;;;;;;3.55;2.55;;;;;;;;;;5053961;28;20056;-59
2023/08/26 03:52:00;;;;;;;3.60;2.28;;;;;;;;;;5053072;28;20029;-59
2023/08/26 03:54:26;;;;;;;2.67;1.98;;;;;;;;;;5053070;28;20021;-59
2023/08/26 03:56:52;;;;;;;4.70;2.28;;;;;;;;;;5053859;28;20017;-59
2023/08/26 03:59:19;;;;;;;3.38;2.03;;;;;;;;;;5054136;28;20417;-59
2023/08/26 04:01:45;;;;;;;4.22;2.60;;;;;;;;;;5052928;28;20455;-59
2023/08/26 04:04:11;;;;;;;4.00;2.30;;;;;;;;;;5053229;28;20021;-59
2023/08/26 04:06:37;;;;;;;2.70;2.10;;;;;;;;;;5053212;28;20532;-60
2023/08/26 04:09:03;;;;;;;4.28;2.72;;;;;;;;;;5053774;28;20029;-59
2023/08/26 04:11:29;;;;;;;3.90;2.78;;;;;;;;;;5052817;28;20493;-59
2023/08/26 04:13:56;;;;;;;5.45;3.28;;;;;;;;;;5053151;28;20025;-59
2023/08/26 04:16:22;;;;;;;3.67;2.58;;;;;;;;;;5053362;28;20024;-59
2023/08/26 04:18:48;;;;;;;4.78;3.22;;;;;;;;;;5053116;28;20070;-59
2023/08/26 04:21:15;;;;;;;3.90;2.67;;;;;;;;;;5053015;28;20037;-59
2023/08/26 04:23:41;;;;;;;3.70;2.90;;;;;;;;;;5053037;28;20030;-59
2023/08/26 04:26:07;;;;;;;3.20;2.60;;;;;;;;;;5053887;28;20324;-59
2023/08/26 04:28:33;;;;;;;3.53;2.33;;;;;;;;;;5053176;28;20479;-59
2023/08/26 04:31:00;;;;;;;4.38;3.88;;;;;;;;;;5053007;28;20473;-59
2023/08/26 04:33:26;;;;;;;3.70;2.95;;;;;;;;;;5052645;28;20459;-59
2023/08/26 04:35:51;;;;;;;3.45;2.67;;;;;;;;;;5052592;28;20051;-59
2023/08/26 04:38:17;;;;;;;4.28;2.83;;;;;;;;;;5054422;28;20092;-59
2023/08/26 04:40:43;;;;;;;4.18;3.17;;;;;;;;;;5056695;28;20123;-59
2023/08/26 04:43:10;;;;;;;4.82;3.50;;;;;;;;;;5056764;28;20025;-59
2023/08/26 04:45:37;;;;;;;3.67;3.05;;;;;;;;;;5057000;28;20060;-59
2023/08/26 04:48:04;;;;;;;7.20;3.40;;;;;;;;;;5057170;28;20040;-59
2023/08/26 04:50:29;;;;;;;3.70;3.28;;;;;;;;;;5057464;28;20450;-59
2023/08/26 04:52:55;;;;;;;5.88;3.22;;;;;;;;;;5056607;28;20024;-59
2023/08/26 04:55:21;;;;;;;4.70;3.20;;;;;;;;;;5056572;28;20071;-59
2023/08/26 04:57:47;;;;;;;5.15;3.42;;;;;;;;;;5056272;28;20073;-59
2023/08/26 05:00:16;;;;;;;3.30;2.53;;;;;;;;;;5056417;28;20459;-59
2023/08/26 05:02:42;;;;;;;3.70;2.85;;;;;;;;;;5056100;28;20025;-59
2023/08/26 05:05:08;;;;;;;5.38;3.15;;;;;;;;;;5056397;28;20040;-59
2023/08/26 05:07:34;;;;;;;5.43;3.03;;;;;;;;;;5056349;28;20074;-59
2023/08/26 05:10:00;;;;;;;5.22;2.35;;;;;;;;;;5056302;28;20455;-59
2023/08/26 05:12:26;;;;;;;5.78;3.55;;;;;;;;;;5056443;28;20032;-59
2023/08/26 05:14:52;;;;;;;6.40;3.75;;;;;;;;;;5055965;28;20013;-59
2023/08/26 05:17:18;;;;;;;3.70;3.08;;;;;;;;;;5056598;28;20036;-59
2023/08/26 05:19:44;;;;;;;5.65;3.22;;;;;;;;;;5056120;28;20494;-59
2023/08/26 05:22:10;;;;;;;3.88;2.67;;;;;;;;;;5056532;28;20371;-59
2023/08/26 05:24:36;;;;;;;6.03;3.67;;;;;;;;;;5056200;28;20032;-59
2023/08/26 05:27:03;;;;;;;7.05;3.65;;;;;;;;;;5055958;28;20075;-59
2023/08/26 05:29:30;;;;;;;4.32;3.35;;;;;;;;;;5056419;28;20120;-59
2023/08/26 05:31:56;;;;;;;4.45;3.33;;;;;;;;;;5055602;28;20071;-59
2023/08/26 05:34:22;;;;;;;5.10;3.85;;;;;;;;;;5056455;28;20025;-59
2023/08/26 05:36:48;;;;;;;5.20;3.15;;;;;;;;;;5055446;28;20053;-59
2023/08/26 05:39:14;;;;;;;3.70;3.33;;;;;;;;;;5056022;28;20070;-59
2023/08/26 05:41:40;;;;;;;5.60;3.08;;;;;;;;;;5055296;28;20104;-59
2023/08/26 05:44:06;;;;;;;4.18;3.13;;;;;;;;;;5055423;28;20108;-59
2023/08/26 05:46:32;;;;;;;3.80;3.20;;;;;;;;;;5055219;28;20459;-59
2023/08/26 05:48:58;;;;;;;5.13;3.72;;;;;;;;;;5054156;28;20035;-59
2023/08/26 05:51:24;;;;;;;3.30;2.50;;;;;;;;;;5054345;28;20074;-59
2023/08/26 05:53:50;;;;;;;3.53;3.03;;;;;;;;;;5055191;28;20029;-59
2023/08/26 05:56:16;;;;;;;7.03;3.47;;;;;;;;;;5055580;28;20047;-59
2023/08/26 05:58:42;;;;;;;3.78;3.10;;;;;;;;;;5055067;28;20147;-59
2023/08/26 06:01:08;;;;;;;3.65;3.22;;;;;;;;;;5054999;28;20033;-59
2023/08/26 06:03:34;;;;;;;6.32;3.40;;;;;;;;;;5055030;28;20344;-59
2023/08/26 06:06:00;;;;;;;8.20;3.60;;;;;;;;;;5054689;28;20040;-59
2023/08/26 06:08:26;;;;;;;4.38;3.00;;;;;;;;;;5055115;28;20098;-59
2023/08/26 06:10:55;;;;;;;5.07;3.38;;;;;;;;;;5055118;28;20455;-59
2023/08/26 06:13:21;;;;;;;3.80;2.58;;;;;;;;;;5054548;28;20048;-59
2023/08/26 06:15:53;;;;;;;4.90;3.28;;;;;;;;;;5054468;28;20356;-59
2023/08/26 06:18:19;;;;;;;4.53;3.03;;;;;;;;;;5055240;28;20021;-59
2023/08/26 06:20:45;;;;;;;3.95;3.25;;;;;;;;;;5055274;28;20411;-59
2023/08/26 06:23:11;;;;;;;5.10;2.85;;;;;;;;;;5054295;28;20025;-59
2023/08/26 06:25:37;;;;;;;4.03;3.40;;;;;;;;;;5055095;28;20363;-59
2023/08/26 06:28:03;;;;;;;4.20;3.42;;;;;;;;;;5055062;28;20021;-59
2023/08/26 06:30:29;;;;;;;3.85;2.97;;;;;;;;;;5055313;28;20025;-59
2023/08/26 06:32:55;;;;;;;4.18;3.20;;;;;;;;;;5054915;28;20033;-59
2023/08/26 06:35:26;;;;;;;4.03;3.10;;;;;;;;;;5054095;28;20163;-59
2023/08/26 06:37:52;;;;;;;6.57;3.17;;;;;;;;;;5054818;28;20032;-59
2023/08/26 06:40:18;;;;;;;4.57;3.45;;;;;;;;;;5054454;28;20378;-59
2023/08/26 06:42:44;;;;;;;4.70;3.80;;;;;;;;;;5054274;28;20443;-59
2023/08/26 06:45:10;;;;;;;5.20;3.22;;;;;;;;;;5054522;28;20023;-59
2023/08/26 06:47:36;;;;;;;3.92;3.10;;;;;;;;;;5053877;28;20025;-59
2023/08/26 06:50:02;;;;;;;4.47;3.15;;;;;;;;;;5054945;28;20029;-59
2023/08/26 06:52:29;;;;;;;7.10;3.13;;;;;;;;;;5054863;28;20112;-59
2023/08/26 06:54:55;;;;;;;3.60;3.00;;;;;;;;;;5054013;28;20458;-59
2023/08/26 06:57:21;;;;;;;4.28;2.90;;;;;;;;;;5054206;28;20108;-59
2023/08/26 06:59:47;;;;;;;3.85;3.03;;;;;;;;;;5053656;28;20104;-59
2023/08/26 07:02:14;;;;;;;5.15;3.40;;;;;;;;;;5054409;28;20021;-59
2023/08/26 07:04:40;;;;;;;3.53;3.13;;;;;;;;;;5054595;28;20021;-60
2023/08/26 07:07:07;;;;;;;4.63;3.38;;;;;;;;;;5054142;28;20032;-60
2023/08/26 07:09:33;;;;;;;3.50;2.75;;;;;;;;;;5054679;28;20025;-59
2023/08/26 07:11:59;;;;;;;4.45;3.17;;;;;;;;;;5053816;28;20108;-60
2023/08/26 07:14:25;;;;;;;3.50;2.65;;;;;;;;;;5053479;28;20025;-60
2023/08/26 07:16:51;;;;;;;3.55;2.88;;;;;;;;;;5053657;28;20471;-59
2023/08/26 07:19:17;;;;;;;3.72;3.08;;;;;;;;;;5054206;28;20067;-60
2023/08/26 07:21:43;;;;;;;6.28;2.97;;;;;;;;;;5053246;28;20029;-59
2023/08/26 07:24:09;;;;;;;3.55;2.78;;;;;;;;;;5054167;28;20025;-60
2023/08/26 07:26:36;;;;;;;4.50;3.20;;;;;;;;;;5053465;28;20056;-59
2023/08/26 07:29:02;;;;;;;4.05;3.22;;;;;;;;;;5053929;28;20025;-59
2023/08/26 07:31:28;;;;;;;3.67;3.08;;;;;;;;;;5053444;28;20040;-59
2023/08/26 07:33:54;;;;;;;5.55;3.53;;;;;;;;;;5053502;28;20356;-60
2023/08/26 07:36:20;;;;;;;4.05;3.47;;;;;;;;;;5053468;28;20051;-60
2023/08/26 07:38:46;;;;;;;3.90;2.72;;;;;;;;;;5053462;28;20017;-60
2023/08/26 07:41:12;;;;;;;4.35;3.45;;;;;;;;;;5053027;28;20087;-60
2023/08/26 07:43:38;;;;;;;4.28;3.55;;;;;;;;;;5053018;28;20032;-60
2023/08/26 07:46:04;;;;;;;4.25;3.35;;;;;;;;;;5053972;28;20031;-60
2023/08/26 07:48:30;;;;;;;5.22;3.90;;;;;;;;;;5053705;28;20025;-60
2023/08/26 07:50:56;;;;;;;5.47;3.42;;;;;;;;;;5053767;28;20071;-60
2023/08/26 07:53:22;;;;;;;4.03;2.95;;;;;;;;;;5053574;28;20021;-60
2023/08/26 07:55:48;;;;;;;4.82;3.10;;;;;;;;;;5053319;28;20111;-60
2023/08/26 07:58:14;;;;;;;4.28;3.30;;;;;;;;;;5053073;28;20021;-60
2023/08/26 08:00:40;;;;;;;3.30;2.67;;;;;;;;;;5053510;28;20029;-59
2023/08/26 08:03:06;;;;;;;7.22;3.42;;;;;;;;;;5053217;28;20133;-60
2023/08/26 08:05:32;;;;;;;3.83;2.80;;;;;;;;;;5053386;28;20025;-59
2023/08/26 08:07:58;;;;;;;3.97;3.33;;;;;;;;;;5053245;28;20351;-60
2023/08/26 08:10:24;;;;;;;3.88;3.05;;;;;;;;;;5053229;28;20025;-60
2023/08/26 08:12:50;;;;;;;3.72;2.42;;;;;;;;;;5054224;28;20033;-61
2023/08/26 08:15:15;;;;;;;3.75;3.22;;;;;;;;;;5057344;28;20351;-61
2023/08/26 08:17:41;;;;;;;4.15;2.80;;;;;;;;;;5057067;28;20443;-61
2023/08/26 08:20:07;;;;;;;3.20;2.35;;;;;;;;;;5057299;28;20029;-60
2023/08/26 08:22:39;;;;;;;4.80;2.97;;;;;;;;;;5056659;28;20079;-61
2023/08/26 08:25:05;;;;;;;3.45;2.60;;;;;;;;;;5057700;28;20335;-58
2023/08/26 08:27:31;;;;;;;6.80;3.65;;;;;;;;;;5056541;28;20463;-58
2023/08/26 08:29:57;;;;;;;7.03;3.28;;;;;;;;;;5057525;28;20029;-60
2023/08/26 08:32:24;;;;;;;3.70;3.22;;;;;;;;;;5056725;28;20422;-60
2023/08/26 08:34:50;;;;;;;5.07;2.63;;;;;;;;;;5057218;28;20025;-62
2023/08/26 08:37:16;;;;;;;4.05;3.17;;;;;;;;;;5057822;28;20199;-61
2023/08/26 08:39:42;;;;;;;4.07;2.72;;;;;;;;;;5057592;28;20025;-59
2023/08/26 08:42:09;;;;;;;3.70;2.63;;;;;;;;;;5056159;28;20497;-59
2023/08/26 08:44:37;;;;;;;3.67;2.97;;;;;;;;;;5056544;28;20021;-60
2023/08/26 08:47:04;;;;;;;3.92;2.17;;;;;;;;;;5057309;28;20025;-60
2023/08/26 08:49:30;;;;;;;4.78;2.28;;;;;;;;;;5056470;28;20104;-60
2023/08/26 08:51:56;;;;;;;6.97;2.70;;;;;;;;;;5056389;28;20068;-60
2023/08/26 08:54:23;;;;;;;5.43;3.13;;;;;;;;;;5056352;28;20116;-60
2023/08/26 08:56:49;;;;;;;3.88;2.28;;;;;;;;;;5056505;28;20060;-60
2023/08/26 08:59:15;;;;;;;3.92;2.70;;;;;;;;;;5056728;28;20447;-60
2023/08/26 09:01:42;;;;;;;5.10;2.95;;;;;;;;;;5056641;28;20380;-60
2023/08/26 09:04:07;;;;;;;4.20;2.92;;;;;;;;;;5055858;28;20032;-60
2023/08/26 09:06:34;;;;;;;6.45;3.33;;;;;;;;;;5056356;28;20027;-60
2023/08/26 09:09:02;;;;;;;3.85;2.83;;;;;;;;;;5055999;28;20482;-60
2023/08/26 09:11:28;;;;;;;6.95;3.40;;;;;;;;;;5056072;28;20037;-60
2023/08/26 09:13:54;;;;;;;7.38;4.05;;;;;;;;;;5055916;28;20032;-60
2023/08/26 09:16:29;;;;;;;4.38;3.05;;;;;;;;;;5055950;28;20120;-60
2023/08/26 09:18:57;;;;;;;5.05;3.60;;;;;;;;;;5056447;28;20029;-60
2023/08/26 09:21:23;;;;;;;6.53;3.25;;;;;;;;;;5055674;28;20029;-61
2023/08/26 09:23:50;;;;;;;8.93;3.00;;;;;;;;;;5055547;28;20032;-59
2023/08/26 09:26:16;;;;;;;4.70;3.42;;;;;;;;;;5055925;28;20032;-59
2023/08/26 09:28:50;;;;;;;4.55;3.00;;;;;;;;;;5055596;28;20112;-59
2023/08/26 09:31:16;;;;;;;4.15;2.70;;;;;;;;;;5055541;28;20071;-60
2023/08/26 09:33:42;;;;;;;2.95;2.45;;;;;;;;;;5055567;28;20052;-60
2023/08/26 09:36:08;;;;;;;4.43;2.88;;;;;;;;;;5055451;28;20466;-61
2023/08/26 09:38:50;;;;;;;3.95;3.15;;;;;;;;;;5055767;28;20025;-60
2023/08/26 09:41:19;;;;;;;3.95;2.90;;;;;;;;;;5055588;28;20029;-59
2023/08/26 09:43:47;;;;;;;3.58;2.95;;;;;;;;;;5055835;28;20021;-59
2023/08/26 09:46:19;;;;;;;4.72;3.45;;;;;;;;;;5055277;28;20029;-59
2023/08/26 09:48:45;;;;;;;4.55;3.00;;;;;;;;;;5055488;28;20024;-59
2023/08/26 09:51:11;;;;;;;4.30;2.90;;;;;;;;;;5055319;28;20025;-59
2023/08/26 09:53:38;;;;;;;4.22;3.25;;;;;;;;;;5055210;28;20017;-59
2023/08/26 09:56:04;;;;;;;8.48;3.00;;;;;;;;;;5055305;28;20025;-59
2023/08/26 09:58:30;;;;;;;2.88;2.55;;;;;;;;;;5055383;28;20029;-59
2023/08/26 10:00:57;;;;;;;4.80;2.70;;;;;;;;;;5055336;28;20040;-59
2023/08/26 10:03:24;;;;;;;4.32;3.17;;;;;;;;;;5055056;28;20497;-59
2023/08/26 10:05:57;;;;;;;5.63;3.22;;;;;;;;;;5054177;28;20029;-59
2023/08/26 10:08:27;;;;;;;4.65;2.97;;;;;;;;;;5054912;28;20048;-60
2023/08/26 10:10:54;;;;;;;4.45;3.70;;;;;;;;;;5054848;28;20029;-59
2023/08/26 10:13:22;;;;;;;8.90;3.75;;;;;;;;;;5055211;28;20025;-59
2023/08/26 10:15:51;;;;;;;4.40;3.00;;;;;;;;;;5054698;28;20029;-60
2023/08/26 10:18:23;;;;;;;6.63;3.25;;;;;;;;;;5055208;28;20029;-60
2023/08/26 10:20:50;;;;;;;5.03;3.10;;;;;;;;;;5055184;28;20036;-60
2023/08/26 10:23:16;;;;;;;3.65;3.33;;;;;;;;;;5054357;28;20021;-60
2023/08/26 10:25:42;;;;;;;5.60;2.90;;;;;;;;;;5054805;28;20036;-60
2023/08/26 10:28:11;;;;;;;4.97;3.33;;;;;;;;;;5054399;28;20111;-60
2023/08/26 10:30:37;;;;;;;3.42;2.60;;;;;;;;;;5054520;28;20025;-60
2023/08/26 10:33:05;;;;;;;3.38;2.60;;;;;;;;;;5054868;28;20017;-59
2023/08/26 10:35:31;;;;;;;4.30;2.97;;;;;;;;;;5054058;28;20398;-59
2023/08/26 10:38:10;;;;;;;3.55;2.72;;;;;;;;;;5054789;28;20350;-59
2023/08/26 10:40:36;;;;;;;3.55;3.15;;;;;;;;;;5054908;28;20474;-59
2023/08/26 10:43:08;;;;;;;4.65;3.70;;;;;;;;;;5054506;28;20060;-59
2023/08/26 10:45:34;;;;;;;5.38;3.42;;;;;;;;;;5053843;28;20363;-59
2023/08/26 10:48:00;;;;;;;5.22;2.95;;;;;;;;;;5054908;28;20021;-59
2023/08/26 10:50:28;;;;;;;8.40;3.88;;;;;;;;;;5054679;28;20114;-59
2023/08/26 10:53:00;;;;;;;6.45;3.70;;;;;;;;;;5053996;28;20082;-59
2023/08/26 10:55:27;;;;;;;6.28;3.63;;;;;;;;;;5054041;28;20432;-59
2023/08/26 10:58:09;;;;;;;7.53;4.20;;;;;;;;;;5053976;28;20367;-59
2023/08/26 11:00:35;;;;;;;4.45;3.72;;;;;;;;;;5054369;28;20073;-59
2023/08/26 11:03:03;;;;;;;7.25;4.15;;;;;;;;;;5053853;28;20029;-59
2023/08/26 11:05:29;;;;;;;8.88;4.50;;;;;;;;;;5054566;28;20075;-59
2023/08/26 11:07:56;;;;;;;4.40;4.00;;;;;;;;;;5054293;28;20025;-59
2023/08/26 11:10:25;;;;;;;4.82;3.50;;;;;;;;;;5054511;28;20021;-59
2023/08/26 11:12:51;;;;;;;9.05;4.15;;;;;;;;;;5052804;28;20021;-59
2023/08/26 11:15:17;;;;;;;6.38;3.78;;;;;;;;;;5053687;28;20033;-59
2023/08/26 11:17:43;;;;;;;5.38;4.15;;;;;;;;;;5054203;28;20135;-59
2023/08/26 11:20:09;;;;;;;5.03;4.03;;;;;;;;;;5053974;28;20039;-59
2023/08/26 11:22:36;;;;;;;4.47;4.03;;;;;;;;;;5053826;28;20025;-59
2023/08/26 11:25:03;;;;;;;4.28;3.85;;;;;;;;;;5053280;28;20078;-59
2023/08/26 11:27:28;;;;;;;4.07;3.38;;;;;;;;;;5053572;28;20076;-59
2023/08/26 11:29:54;;;;;;;5.13;3.42;;;;;;;;;;5053269;28;20053;-60
2023/08/26 11:32:20;;;;;;;3.50;2.97;;;;;;;;;;5053571;28;20040;-59
2023/08/26 11:34:47;;;;;;;4.82;3.60;;;;;;;;;;5054036;28;20028;-60
2023/08/26 11:37:13;;;;;;;4.65;3.53;;;;;;;;;;5053708;28;20491;-60
2023/08/26 11:39:40;;;;;;;6.55;2.92;;;;;;;;;;5053339;28;20025;-60
2023/08/26 11:42:12;;;;;;;4.97;3.25;;;;;;;;;;5053188;28;20040;-60
2023/08/26 11:44:38;;;;;;;4.72;3.25;;;;;;;;;;5053235;28;20025;-60
2023/08/26 11:47:05;;;;;;;4.57;3.35;;;;;;;;;;5053269;28;20375;-60
2023/08/26 11:49:34;;;;;;;6.20;3.67;;;;;;;;;;5057134;28;20024;-60
2023/08/26 11:52:00;;;;;;;5.22;4.13;;;;;;;;;;5057401;28;20029;-60
2023/08/26 11:54:26;;;;;;;3.83;3.42;;;;;;;;;;5057186;28;20021;-60
2023/08/26 11:56:52;;;;;;;5.03;3.35;;;;;;;;;;5057634;28;20036;-59
2023/08/26 11:59:21;;;;;;;4.80;3.65;;;;;;;;;;5058128;28;20067;-60
2023/08/26 12:01:47;;;;;;;7.68;3.78;;;;;;;;;;5057415;28;20059;-60
2023/08/26 12:04:16;;;;;;;4.22;2.95;;;;;;;;;;5057295;28;20031;-60
2023/08/26 12:06:43;;;;;;;7.70;3.53;;;;;;;;;;5055835;28;20025;-59
2023/08/26 12:09:11;;;;;;;4.60;3.85;;;;;;;;;;5056937;28;20100;-60
2023/08/26 12:11:40;;;;;;;4.30;3.55;;;;;;;;;;5057041;28;20033;-59
2023/08/26 12:14:19;;;;;;;4.03;3.00;;;;;;;;;;5056838;28;20053;-59
2023/08/26 12:16:45;;;;;;;6.13;4.38;;;;;;;;;;5057089;28;20071;-59
2023/08/26 12:19:16;;;;;;;5.28;4.20;;;;;;;;;;5057548;28;20025;-60
2023/08/26 12:21:42;;;;;;;4.70;4.15;;;;;;;;;;5056508;28;20036;-60
2023/08/26 12:24:08;;;;;;;4.30;3.90;;;;;;;;;;5056880;28;20033;-60
2023/08/26 12:26:37;;;;;;;4.90;4.20;;;;;;;;;;5056789;28;20028;-60
2023/08/26 12:29:03;;;;;;;5.65;4.38;;;;;;;;;;5057356;28;20018;-60
2023/08/26 12:31:29;;;;;;;5.80;5.20;;;;;;;;;;5056776;28;20025;-60
2023/08/26 12:33:55;;;;;;;5.60;4.22;;;;;;;;;;5056778;28;20416;-59
2023/08/26 12:36:21;;;;;;;4.88;4.43;;;;;;;;;;5056610;28;20056;-59
2023/08/26 12:38:47;;;;;;;4.85;3.80;;;;;;;;;;5057285;28;20024;-59
2023/08/26 12:41:13;;;;;;;5.53;4.70;;;;;;;;;;5056546;28;20104;-60
2023/08/26 12:43:38;;;;;;;6.35;4.90;;;;;;;;;;5056214;28;20108;-59
2023/08/26 12:46:04;;;;;;;5.85;5.25;;;;;;;;;;5056239;28;20470;-59
2023/08/26 12:48:30;;;;;;;5.47;4.93;;;;;;;;;;5056709;28;20021;-60
2023/08/26 12:50:56;;;;;;;6.45;4.75;;;;;;;;;;5056960;28;20116;-60
2023/08/26 12:53:22;;;;;;;5.53;4.63;;;;;;;;;;5056866;28;20462;-60
2023/08/26 12:55:48;;;;;;;8.52;5.65;;;;;;;;;;5056697;28;20036;-59
2023/08/26 12:58:22;;;;;;;5.68;4.43;;;;;;;;;;5055989;28;20355;-60
2023/08/26 13:00:48;;;;;;;7.03;4.28;;;;;;;;;;5056826;28;20090;-61
2023/08/26 13:03:14;;;;;;;3.90;3.55;;;;;;;;;;5056684;28;20104;-60
2023/08/26 13:05:40;;;;;;;5.97;4.55;;;;;;;;;;5056186;28;20068;-60
2023/08/26 13:08:06;;;;;;;4.20;3.80;;;;;;;;;;5056586;28;20363;-60
2023/08/26 13:10:32;;;;;;;3.55;3.08;;;;;;;;;;5056585;28;20055;-60
2023/08/26 13:12:58;;;;;;;3.72;3.17;;;;;;;;;;5055960;28;20020;-61
2023/08/26 13:15:25;;;;;;;4.07;3.08;;;;;;;;;;5055902;28;20017;-60
2023/08/26 13:17:52;;;;;;;5.72;2.85;;;;;;;;;;5056353;28;20017;-60
2023/08/26 13:20:18;;;;;;;3.90;2.75;;;;;;;;;;5056373;28;20033;-60
2023/08/26 13:22:44;;;;;;;3.40;2.92;;;;;;;;;;5056120;28;20025;-60
2023/08/26 13:25:10;;;;;;;3.55;3.05;;;;;;;;;;5055758;28;20017;-60
2023/08/26 13:27:36;;;;;;;3.72;2.30;;;;;;;;;;5055494;28;20474;-60
2023/08/26 13:30:02;;;;;;;4.03;3.17;;;;;;;;;;5056272;28;20020;-60
2023/08/26 13:32:28;;;;;;;3.78;3.13;;;;;;;;;;5055509;28;20494;-60
2023/08/26 13:34:54;;;;;;;7.53;3.35;;;;;;;;;;5055601;28;20104;-60
2023/08/26 13:37:21;;;;;;;3.35;3.00;;;;;;;;;;5055875;28;20049;-60
2023/08/26 13:39:47;;;;;;;3.53;3.05;;;;;;;;;;5055498;28;20032;-60
2023/08/26 13:42:13;;;;;;;3.65;2.65;;;;;;;;;;5055610;28;20378;-60
2023/08/26 13:44:39;;;;;;;4.78;3.17;;;;;;;;;;5055350;28;20374;-60
2023/08/26 13:47:05;;;;;;;4.63;3.17;;;;;;;;;;5055377;28;20024;-60
2023/08/26 13:49:31;;;;;;;3.70;2.53;;;;;;;;;;5055609;28;20071;-60
2023/08/26 13:51:57;;;;;;;3.80;3.15;;;;;;;;;;5055770;28;20025;-60
2023/08/26 13:54:23;;;;;;;5.38;3.17;;;;;;;;;;5055532;28;20124;-60
2023/08/26 13:56:52;;;;;;;4.15;3.25;;;;;;;;;;5055174;28;20028;-60
2023/08/26 13:59:18;;;;;;;3.58;3.25;;;;;;;;;;5055083;28;20021;-59
2023/08/26 14:01:44;;;;;;;4.28;3.42;;;;;;;;;;5055366;28;20491;-59
2023/08/26 14:04:10;;;;;;;5.40;3.33;;;;;;;;;;5055460;28;20021;-59
2023/08/26 14:06:36;;;;;;;5.57;2.67;;;;;;;;;;5055438;28;20443;-59
2023/08/26 14:09:02;;;;;;;4.25;3.22;;;;;;;;;;5054940;28;20029;-59
2023/08/26 14:11:28;;;;;;;5.07;3.13;;;;;;;;;;5054103;28;20024;-59
2023/08/26 14:13:54;;;;;;;5.25;3.20;;;;;;;;;;5054866;28;20053;-59
2023/08/26 14:16:20;;;;;;;3.55;2.90;;;;;;;;;;5055257;28;20021;-60
2023/08/26 14:18:46;;;;;;;5.90;2.90;;;;;;;;;;5055439;28;20086;-59
2023/08/26 14:21:12;;;;;;;4.63;3.10;;;;;;;;;;5055083;28;20414;-59
2023/08/26 14:23:38;;;;;;;3.95;2.90;;;;;;;;;;5054612;28;20022;-59
2023/08/26 14:26:04;;;;;;;4.18;2.80;;;;;;;;;;5054600;28;20021;-59
2023/08/26 14:28:30;;;;;;;3.55;3.10;;;;;;;;;;5054753;28;20074;-59
2023/08/26 14:30:56;;;;;;;4.53;3.50;;;;;;;;;;5055313;28;20021;-59
2023/08/26 14:33:22;;;;;;;3.92;3.05;;;;;;;;;;5054475;28;20029;-59
2023/08/26 14:35:50;;;;;;;3.63;3.22;;;;;;;;;;5053630;28;20415;-59
2023/08/26 14:38:16;;;;;;;4.57;3.50;;;;;;;;;;5054802;28;20021;-60
2023/08/26 14:40:51;;;;;;;5.18;3.47;;;;;;;;;;5054657;28;20478;-59